createdAt,value
2016-03-31T00:00:24.035Z,8.5
2016-03-31T00:01:24.038Z,8.47
2016-03-31T00:02:24.072Z,8.52
2016-03-31T00:03:24.434Z,8.53
2016-03-31T00:04:24.062Z,8.44
2016-03-31T00:05:24.065Z,8.38
2016-03-31T00:06:24.036Z,8.4
2016-03-31T00:07:24.288Z,8.47
2016-03-31T00:08:24.291Z,8.41
2016-03-31T00:09:38.356Z,8.36
2016-03-31T00:10:38.156Z,8.36
2016-03-31T00:11:24.549Z,8.38
2016-03-31T00:12:38.364Z,8.33
2016-03-31T00:13:24.070Z,8.29
2016-03-31T00:14:24.073Z,8.3
2016-03-31T00:15:38.576Z,8.3
2016-03-31T00:16:24.110Z,8.34
2016-03-31T00:17:24.205Z,8.28
2016-03-31T00:18:24.124Z,8.28
2016-03-31T00:20:24.113Z,8.23
2016-03-31T00:21:24.116Z,8.2
2016-03-31T00:22:24.290Z,8.12
2016-03-31T00:23:24.088Z,8.19
2016-03-31T00:24:24.092Z,8.16
2016-03-31T00:25:24.079Z,8.18
2016-03-31T00:26:38.191Z,8.12
2016-03-31T00:27:24.085Z,8.12
2016-03-31T00:28:24.134Z,8.19
2016-03-31T00:29:38.387Z,8.05
2016-03-31T00:30:23.988Z,8.08
2016-03-31T00:31:23.928Z,8.11
2016-03-31T00:32:23.994Z,8.02
2016-03-31T00:33:24.124Z,8.11
2016-03-31T00:34:38.392Z,8.07
2016-03-31T00:35:24.348Z,8.02
2016-03-31T00:36:24.492Z,8.02
2016-03-31T00:37:24.120Z,8.02
2016-03-31T00:38:24.747Z,8.01
2016-03-31T00:39:24.108Z,8.01
2016-03-31T00:40:24.096Z,8.01
2016-03-31T00:41:24.302Z,8.01
2016-03-31T00:42:24.117Z,8
2016-03-31T00:43:24.339Z,8.07
2016-03-31T00:44:24.122Z,8
2016-03-31T00:45:24.344Z,8.04
2016-03-31T00:46:24.112Z,8.07
2016-03-31T00:47:24.224Z,8
2016-03-31T00:48:24.149Z,8.02
2016-03-31T00:49:24.542Z,7.93
2016-03-31T00:50:24.310Z,7.97
2016-03-31T00:51:24.111Z,7.97
2016-03-31T00:52:24.128Z,8.02
2016-03-31T00:53:38.413Z,8.07
2016-03-31T00:54:24.118Z,8.07
2016-03-31T00:55:24.340Z,8.11
2016-03-31T00:57:24.345Z,8.12
2016-03-31T00:58:24.332Z,8
2016-03-31T00:59:24.132Z,8.08
2016-03-31T01:00:24.353Z,8
2016-03-31T01:01:24.199Z,8.01
2016-03-31T01:02:24.577Z,8.02
2016-03-31T01:03:38.236Z,8.02
2016-03-31T01:04:24.176Z,8.04
2016-03-31T01:05:24.132Z,8.01
2016-03-31T01:06:23.665Z,8.04
2016-03-31T01:07:23.856Z,8.02
2016-03-31T01:08:24.156Z,8.02
2016-03-31T01:09:24.142Z,8.01
2016-03-31T01:10:24.365Z,8.07
2016-03-31T01:11:38.664Z,8.01
2016-03-31T01:12:24.620Z,8
2016-03-31T01:13:24.591Z,8.01
2016-03-31T01:14:24.172Z,8.04
2016-03-31T01:15:24.175Z,8
2016-03-31T01:16:24.380Z,8.01
2016-03-31T01:17:24.492Z,8
2016-03-31T01:18:24.167Z,8.07
2016-03-31T01:19:24.185Z,8.02
2016-03-31T01:20:23.703Z,8.08
2016-03-31T01:21:24.393Z,8.11
2016-03-31T01:22:24.396Z,8.08
2016-03-31T01:23:38.461Z,8.1
2016-03-31T01:24:24.168Z,8.16
2016-03-31T01:25:24.185Z,8.16
2016-03-31T01:26:24.219Z,8.16
2016-03-31T01:27:38.300Z,8.12
2016-03-31T01:28:38.506Z,8.16
2016-03-31T01:29:24.587Z,8.1
2016-03-31T01:30:24.448Z,8.18
2016-03-31T01:31:38.514Z,8.18
2016-03-31T01:32:24.064Z,8.26
2016-03-31T01:33:24.582Z,8.18
2016-03-31T01:34:24.631Z,8.25
2016-03-31T01:35:24.400Z,8.15
2016-03-31T01:36:24.200Z,8.28
2016-03-31T01:38:24.205Z,8.22
2016-03-31T01:39:24.630Z,8.25
2016-03-31T01:40:23.757Z,8.23
2016-03-31T01:41:24.244Z,8.26
2016-03-31T01:42:24.435Z,8.29
2016-03-31T01:43:24.281Z,8.33
2016-03-31T01:44:38.315Z,8.3
2016-03-31T01:45:24.645Z,8.3
2016-03-31T01:46:24.227Z,8.25
2016-03-31T01:47:24.464Z,8.26
2016-03-31T01:48:23.732Z,8.3
2016-03-31T01:49:24.703Z,8.26
2016-03-31T01:50:24.675Z,8.25
2016-03-31T01:51:24.271Z,8.23
2016-03-31T01:52:24.243Z,8.23
2016-03-31T01:53:24.230Z,8.26
2016-03-31T01:54:24.232Z,8.23
2016-03-31T01:55:24.485Z,8.28
2016-03-31T01:56:24.254Z,8.26
2016-03-31T01:57:24.256Z,8.29
2016-03-31T01:58:24.243Z,8.26
2016-03-31T01:59:24.465Z,8.26
2016-03-31T02:00:24.265Z,8.29
2016-03-31T02:01:24.251Z,8.26
2016-03-31T02:02:24.270Z,8.28
2016-03-31T02:03:24.460Z,8.3
2016-03-31T02:04:24.275Z,8.28
2016-03-31T02:05:24.278Z,8.3
2016-03-31T02:06:24.281Z,8.26
2016-03-31T02:07:24.291Z,8.23
2016-03-31T02:08:24.497Z,8.33
2016-03-31T02:09:24.282Z,8.29
2016-03-31T02:10:38.565Z,8.36
2016-03-31T02:11:24.272Z,8.4
2016-03-31T02:12:23.837Z,8.38
2016-03-31T02:13:24.480Z,8.36
2016-03-31T02:14:24.279Z,8.37
2016-03-31T02:15:24.298Z,8.33
2016-03-31T02:16:24.284Z,8.34
2016-03-31T02:17:25.243Z,8.38
2016-03-31T02:18:24.715Z,8.47
2016-03-31T02:19:24.296Z,8.41
2016-03-31T02:20:24.299Z,8.41
2016-03-31T02:21:24.723Z,8.37
2016-03-31T02:23:24.744Z,8.43
2016-03-31T02:24:24.528Z,8.43
2016-03-31T02:26:24.939Z,8.41
2016-03-31T02:27:24.317Z,8.47
2016-03-31T02:28:24.319Z,8.48
2016-03-31T02:29:24.306Z,8.4
2016-03-31T02:30:24.341Z,8.38
2016-03-31T02:31:24.343Z,8.44
2016-03-31T02:32:24.627Z,8.38
2016-03-31T02:33:38.614Z,8.38
2016-03-31T02:34:23.852Z,8.36
2016-03-31T02:35:24.526Z,8.37
2016-03-31T02:36:24.325Z,8.43
2016-03-31T02:37:24.328Z,8.36
2016-03-31T02:38:24.330Z,8.38
2016-03-31T02:39:24.333Z,8.38
2016-03-31T02:41:24.557Z,8.38
2016-03-31T02:42:24.561Z,8.28
2016-03-31T02:43:24.282Z,8.33
2016-03-31T02:44:24.332Z,8.28
2016-03-31T02:45:24.756Z,8.26
2016-03-31T02:46:24.353Z,8.29
2016-03-31T02:47:24.449Z,8.26
2016-03-31T02:48:24.779Z,8.33
2016-03-31T02:49:38.454Z,8.22
2016-03-31T02:50:24.363Z,8.29
2016-03-31T02:51:24.397Z,8.3
2016-03-31T02:52:24.573Z,8.33
2016-03-31T02:53:24.403Z,8.28
2016-03-31T02:54:24.390Z,8.26
2016-03-31T02:55:24.392Z,8.25
2016-03-31T02:56:24.567Z,8.22
2016-03-31T02:57:24.367Z,8.3
2016-03-31T02:58:24.384Z,8.23
2016-03-31T02:59:24.372Z,8.25
2016-03-31T03:00:24.390Z,8.19
2016-03-31T03:01:24.596Z,8.2
2016-03-31T03:02:24.506Z,8.28
2016-03-31T03:03:24.430Z,8.25
2016-03-31T03:04:24.605Z,8.23
2016-03-31T03:06:24.594Z,8.2
2016-03-31T03:07:25.363Z,8.22
2016-03-31T03:08:24.500Z,8.25
2016-03-31T03:09:25.019Z,8.18
2016-03-31T03:10:24.396Z,8.16
2016-03-31T03:11:24.619Z,8.2
2016-03-31T03:12:23.902Z,8.19
2016-03-31T03:13:24.420Z,8.22
2016-03-31T03:14:38.517Z,8.18
2016-03-31T03:15:24.629Z,8.16
2016-03-31T03:16:38.710Z,8.12
2016-03-31T03:17:24.650Z,8.07
2016-03-31T03:18:24.403Z,8.05
2016-03-31T03:19:24.405Z,8.16
2016-03-31T03:20:24.829Z,8.01
2016-03-31T03:21:24.396Z,8.15
2016-03-31T03:22:24.663Z,8
2016-03-31T03:23:24.432Z,8.01
2016-03-31T03:24:24.841Z,8
2016-03-31T03:25:24.406Z,8.01
2016-03-31T03:26:24.455Z,8
2016-03-31T03:27:24.411Z,7.9
2016-03-31T03:28:25.071Z,7.97
2016-03-31T03:29:24.432Z,7.9
2016-03-31T03:30:24.856Z,7.89
2016-03-31T03:31:24.423Z,7.9
2016-03-31T03:32:24.503Z,7.89
2016-03-31T03:33:24.443Z,7.86
2016-03-31T03:34:38.556Z,7.89
2016-03-31T03:35:24.683Z,8.04
2016-03-31T03:36:38.747Z,8.01
2016-03-31T03:37:23.984Z,7.9
2016-03-31T03:38:24.425Z,7.97
2016-03-31T03:39:24.474Z,8
2016-03-31T03:40:24.477Z,8.01
2016-03-31T03:41:24.652Z,7.89
2016-03-31T03:42:38.545Z,8.07
2016-03-31T03:43:24.469Z,8.02
2016-03-31T03:44:24.473Z,8.04
2016-03-31T03:45:24.444Z,8.08
2016-03-31T03:46:24.680Z,8.02
2016-03-31T03:47:24.747Z,7.97
2016-03-31T03:48:24.889Z,8.01
2016-03-31T03:49:24.705Z,7.98
2016-03-31T03:50:24.504Z,7.98
2016-03-31T03:51:24.663Z,7.95
2016-03-31T03:52:24.479Z,8.02
2016-03-31T03:53:24.482Z,8.04
2016-03-31T03:54:24.531Z,8.07
2016-03-31T03:55:24.908Z,8.02
2016-03-31T03:56:38.770Z,8.02
2016-03-31T03:57:24.461Z,8.05
2016-03-31T03:58:24.682Z,8.04
2016-03-31T03:59:24.513Z,8.04
2016-03-31T04:00:24.484Z,8.07
2016-03-31T04:01:24.503Z,8.08
2016-03-31T04:03:24.492Z,8.08
2016-03-31T04:04:24.698Z,8.15
2016-03-31T04:06:24.484Z,8.02
2016-03-31T04:07:24.690Z,8.07
2016-03-31T04:08:24.490Z,8.11
2016-03-31T04:09:38.805Z,8.02
2016-03-31T04:10:24.511Z,8.02
2016-03-31T04:11:24.530Z,8.15
2016-03-31T04:12:24.539Z,8.02
2016-03-31T04:13:24.896Z,8.11
2016-03-31T04:14:24.977Z,8.08
2016-03-31T04:15:38.943Z,8.07
2016-03-31T04:16:24.587Z,8.18
2016-03-31T04:17:24.824Z,8.11
2016-03-31T04:18:24.482Z,8.07
2016-03-31T04:19:24.502Z,8.16
2016-03-31T04:20:24.488Z,8.1
2016-03-31T04:21:24.521Z,8.08
2016-03-31T04:22:24.524Z,8.11
2016-03-31T04:23:24.746Z,8.07
2016-03-31T04:24:24.702Z,8.12
2016-03-31T04:25:24.736Z,8.08
2016-03-31T04:26:24.573Z,8.11
2016-03-31T04:28:24.918Z,8.16
2016-03-31T04:30:24.782Z,8.2
2016-03-31T04:31:25.053Z,8.18
2016-03-31T04:32:25.091Z,8.12
2016-03-31T04:33:24.924Z,8.12
2016-03-31T04:34:24.853Z,8.11
2016-03-31T04:35:38.996Z,8.11
2016-03-31T04:36:24.880Z,8.19
2016-03-31T04:37:39.435Z,8.12
2016-03-31T04:38:24.898Z,8.11
2016-03-31T04:39:24.907Z,8.19
2016-03-31T04:40:24.930Z,8.15
2016-03-31T04:41:25.123Z,8.11
2016-03-31T04:42:25.144Z,8.12
2016-03-31T04:43:24.930Z,8.08
2016-03-31T04:44:24.810Z,8.08
2016-03-31T04:45:25.361Z,8.16
2016-03-31T04:46:25.584Z,8.02
2016-03-31T04:47:25.009Z,8.05
2016-03-31T04:48:25.170Z,8.11
2016-03-31T04:49:25.173Z,8.07
2016-03-31T04:51:25.180Z,8.15
2016-03-31T04:52:24.527Z,8.07
2016-03-31T04:53:25.218Z,8.08
2016-03-31T04:54:39.267Z,8.08
2016-03-31T04:55:39.286Z,8.19
2016-03-31T04:56:25.211Z,8.12
2016-03-31T04:57:24.995Z,8.19
2016-03-31T04:58:25.014Z,8.08
2016-03-31T04:59:25.172Z,8.11
2016-03-31T05:00:25.003Z,8.08
2016-03-31T05:01:25.194Z,8.16
2016-03-31T05:02:39.336Z,8.11
2016-03-31T05:03:24.981Z,8.15
2016-03-31T05:04:25.030Z,8.11
2016-03-31T05:05:25.002Z,8.16
2016-03-31T05:06:25.239Z,8.19
2016-03-31T05:07:25.211Z,8.12
2016-03-31T05:08:25.010Z,8.12
2016-03-31T05:09:25.231Z,8.15
2016-03-31T05:10:24.983Z,8.08
2016-03-31T05:11:25.002Z,8.19
2016-03-31T05:12:25.021Z,8.18
2016-03-31T05:13:25.007Z,8.19
2016-03-31T05:14:25.026Z,8.2
2016-03-31T05:15:25.060Z,8.19
2016-03-31T05:16:25.249Z,8.16
2016-03-31T05:17:24.956Z,8.19
2016-03-31T05:18:25.021Z,8.12
2016-03-31T05:19:25.023Z,8.18
2016-03-31T05:20:25.043Z,8.15
2016-03-31T05:21:25.482Z,8.12
2016-03-31T05:22:25.454Z,8.16
2016-03-31T05:23:25.253Z,8.12
2016-03-31T05:24:25.256Z,8.15
2016-03-31T05:25:25.040Z,8.11
2016-03-31T05:26:25.480Z,8.16
2016-03-31T05:27:25.249Z,8.12
2016-03-31T05:28:25.251Z,8.2
2016-03-31T05:29:25.269Z,8.15
2016-03-31T05:30:25.070Z,8.19
2016-03-31T05:31:25.056Z,8.16
2016-03-31T05:32:25.245Z,8.11
2016-03-31T05:33:25.061Z,8.15
2016-03-31T05:34:25.283Z,8.15
2016-03-31T05:35:25.300Z,8.25
2016-03-31T05:36:25.256Z,8.12
2016-03-31T05:37:24.572Z,8.22
2016-03-31T05:38:25.293Z,8.15
2016-03-31T05:39:25.078Z,8.15
2016-03-31T05:40:25.080Z,8.12
2016-03-31T05:41:39.177Z,8.16
2016-03-31T05:42:25.085Z,8.19
2016-03-31T05:43:25.697Z,8.16
2016-03-31T05:44:25.074Z,8.18
2016-03-31T05:45:25.094Z,8.23
2016-03-31T05:46:25.080Z,8.22
2016-03-31T05:47:25.302Z,8.18
2016-03-31T05:48:25.085Z,8.18
2016-03-31T05:49:25.089Z,8.2
2016-03-31T05:50:25.107Z,8.18
2016-03-31T05:51:25.109Z,8.19
2016-03-31T05:52:25.097Z,8.22
2016-03-31T05:53:25.115Z,8.18
2016-03-31T05:54:25.337Z,8.16
2016-03-31T05:55:25.558Z,8.16
2016-03-31T05:56:25.326Z,8.26
2016-03-31T05:57:25.110Z,8.22
2016-03-31T05:58:25.144Z,8.28
2016-03-31T05:59:25.147Z,8.22
2016-03-31T06:00:25.117Z,8.3
2016-03-31T06:01:25.137Z,8.22
2016-03-31T06:02:39.248Z,8.23
2016-03-31T06:03:24.658Z,8.25
2016-03-31T06:04:25.145Z,8.33
2016-03-31T06:05:25.116Z,8.29
2016-03-31T06:06:25.119Z,8.26
2016-03-31T06:07:25.137Z,8.36
2016-03-31T06:08:25.374Z,8.34
2016-03-31T06:09:25.142Z,8.36
2016-03-31T06:10:25.348Z,8.37
2016-03-31T06:11:39.226Z,8.36
2016-03-31T06:12:25.135Z,8.38
2016-03-31T06:14:39.250Z,8.36
2016-03-31T06:15:25.549Z,8.44
2016-03-31T06:16:24.677Z,8.41
2016-03-31T06:17:25.180Z,8.38
2016-03-31T06:18:25.166Z,8.41
2016-03-31T06:19:25.154Z,8.43
2016-03-31T06:20:25.343Z,8.36
2016-03-31T06:21:39.706Z,8.47
2016-03-31T06:22:25.224Z,8.36
2016-03-31T06:23:25.196Z,8.4
2016-03-31T06:24:25.182Z,8.44
2016-03-31T06:25:25.154Z,8.47
2016-03-31T06:26:25.157Z,8.43
2016-03-31T06:27:25.160Z,8.47
2016-03-31T06:28:25.381Z,8.36
2016-03-31T06:29:25.165Z,8.4
2016-03-31T06:30:25.168Z,8.43
2016-03-31T06:31:25.201Z,8.48
2016-03-31T06:32:25.204Z,8.4
2016-03-31T06:33:25.191Z,8.45
2016-03-31T06:34:25.195Z,8.43
2016-03-31T06:35:25.212Z,8.4
2016-03-31T06:36:25.199Z,8.5
2016-03-31T06:37:25.203Z,8.53
2016-03-31T06:38:25.189Z,8.55
2016-03-31T06:39:25.255Z,8.52
2016-03-31T06:40:25.242Z,8.52
2016-03-31T06:41:25.244Z,8.58
2016-03-31T06:42:25.216Z,8.53
2016-03-31T06:43:25.249Z,8.55
2016-03-31T06:44:25.221Z,8.5
2016-03-31T06:45:25.224Z,8.58
2016-03-31T06:46:25.226Z,8.61
2016-03-31T06:48:25.216Z,8.61
2016-03-31T06:49:25.265Z,8.7
2016-03-31T06:50:25.425Z,8.68
2016-03-31T06:51:25.458Z,8.7
2016-03-31T06:52:25.242Z,8.63
2016-03-31T06:53:25.246Z,8.66
2016-03-31T06:54:25.248Z,8.74
2016-03-31T06:55:25.657Z,8.76
2016-03-31T06:56:25.285Z,8.68
2016-03-31T06:57:25.256Z,8.73
2016-03-31T06:58:25.274Z,8.79
2016-03-31T06:59:25.276Z,8.77
2016-03-31T07:00:25.654Z,8.74
2016-03-31T07:01:25.673Z,8.79
2016-03-31T07:02:25.269Z,8.79
2016-03-31T07:03:25.273Z,8.89
2016-03-31T07:04:25.275Z,8.94
2016-03-31T07:05:25.277Z,8.95
2016-03-31T07:06:25.265Z,9.01
2016-03-31T07:07:25.267Z,8.98
2016-03-31T07:08:25.775Z,9.08
2016-03-31T07:09:25.261Z,9.11
2016-03-31T07:10:25.296Z,9.14
2016-03-31T07:11:25.299Z,9.21
2016-03-31T07:12:39.410Z,9.24
2016-03-31T07:13:25.304Z,9.29
2016-03-31T07:15:25.527Z,9.36
2016-03-31T07:16:25.297Z,9.38
2016-03-31T07:17:25.315Z,9.5
2016-03-31T07:18:25.535Z,9.46
2016-03-31T07:19:25.305Z,9.47
2016-03-31T07:20:25.838Z,9.43
2016-03-31T07:21:25.309Z,9.56
2016-03-31T07:22:25.390Z,9.53
2016-03-31T07:23:25.582Z,9.47
2016-03-31T07:24:25.334Z,9.56
2016-03-31T07:25:25.570Z,9.53
2016-03-31T07:26:25.323Z,9.56
2016-03-31T07:27:25.326Z,9.56
2016-03-31T07:28:25.547Z,9.53
2016-03-31T07:29:25.347Z,9.54
2016-03-31T07:30:25.350Z,9.46
2016-03-31T07:31:25.367Z,9.46
2016-03-31T07:32:25.073Z,9.5
2016-03-31T07:33:25.389Z,9.56
2016-03-31T07:34:25.392Z,9.47
2016-03-31T07:35:39.488Z,9.53
2016-03-31T07:36:25.381Z,9.43
2016-03-31T07:37:25.369Z,9.54
2016-03-31T07:38:25.605Z,9.43
2016-03-31T07:39:25.405Z,9.5
2016-03-31T07:40:25.642Z,9.5
2016-03-31T07:41:25.472Z,9.5
2016-03-31T07:42:25.397Z,9.51
2016-03-31T07:43:25.400Z,9.57
2016-03-31T07:44:25.403Z,9.51
2016-03-31T07:45:26.421Z,9.57
2016-03-31T07:46:25.408Z,9.56
2016-03-31T07:47:25.660Z,9.53
2016-03-31T07:48:25.414Z,9.53
2016-03-31T07:49:25.447Z,9.54
2016-03-31T07:50:25.435Z,9.65
2016-03-31T07:51:25.422Z,9.57
2016-03-31T07:52:25.643Z,9.53
2016-03-31T07:53:26.005Z,9.47
2016-03-31T07:54:25.492Z,9.46
2016-03-31T07:55:25.448Z,9.46
2016-03-31T07:56:25.466Z,9.51
2016-03-31T07:57:25.468Z,9.48
2016-03-31T07:58:25.487Z,9.51
2016-03-31T07:59:25.459Z,9.47
2016-03-31T08:00:25.462Z,9.4
2016-03-31T08:01:25.495Z,9.46
2016-03-31T08:02:25.467Z,9.38
2016-03-31T08:03:39.766Z,9.51
2016-03-31T08:04:25.487Z,9.57
2016-03-31T08:05:39.584Z,9.5
2016-03-31T08:06:25.525Z,9.56
2016-03-31T08:07:25.481Z,9.6
2016-03-31T08:08:25.530Z,9.57
2016-03-31T08:09:25.501Z,9.6
2016-03-31T08:10:25.489Z,9.57
2016-03-31T08:11:25.507Z,9.58
2016-03-31T08:12:39.994Z,9.6
2016-03-31T08:13:39.794Z,9.57
2016-03-31T08:14:25.499Z,9.54
2016-03-31T08:15:25.517Z,9.66
2016-03-31T08:16:25.535Z,9.69
2016-03-31T08:17:25.523Z,9.68
2016-03-31T08:18:25.744Z,9.71
2016-03-31T08:19:25.528Z,9.79
2016-03-31T08:20:25.530Z,9.81
2016-03-31T08:21:25.533Z,9.84
2016-03-31T08:22:25.583Z,9.83
2016-03-31T08:23:25.554Z,9.87
2016-03-31T08:24:25.557Z,9.94
2016-03-31T08:25:25.575Z,9.97
2016-03-31T08:26:25.578Z,9.99
2016-03-31T08:27:25.581Z,10.02
2016-03-31T08:28:25.801Z,9.97
2016-03-31T08:29:25.821Z,9.99
2016-03-31T08:30:25.604Z,10.04
2016-03-31T08:31:25.576Z,10.01
2016-03-31T08:32:26.187Z,10.09
2016-03-31T08:33:25.800Z,10.05
2016-03-31T08:34:25.803Z,10.11
2016-03-31T08:35:25.603Z,10.11
2016-03-31T08:36:25.636Z,10.15
2016-03-31T08:37:25.842Z,10.23
2016-03-31T08:38:25.626Z,10.27
2016-03-31T08:39:25.644Z,10.26
2016-03-31T08:40:25.632Z,10.4
2016-03-31T08:41:25.134Z,10.33
2016-03-31T08:42:25.622Z,10.41
2016-03-31T08:43:25.656Z,10.38
2016-03-31T08:44:25.627Z,10.47
2016-03-31T08:45:25.880Z,10.51
2016-03-31T08:46:25.648Z,10.63
2016-03-31T08:47:25.682Z,10.7
2016-03-31T08:48:25.669Z,10.85
2016-03-31T08:49:25.656Z,10.84
2016-03-31T08:50:25.721Z,10.92
2016-03-31T08:51:39.770Z,11.1
2016-03-31T08:52:26.132Z,11.04
2016-03-31T08:54:25.716Z,11.04
2016-03-31T08:55:25.703Z,11.03
2016-03-31T08:56:25.721Z,11.1
2016-03-31T08:57:25.709Z,11.06
2016-03-31T08:58:25.696Z,11.07
2016-03-31T08:59:25.729Z,11.11
2016-03-31T09:00:25.748Z,11.03
2016-03-31T09:01:25.751Z,11.03
2016-03-31T09:02:25.738Z,11.04
2016-03-31T09:03:25.975Z,11.02
2016-03-31T09:04:25.586Z,11
2016-03-31T09:05:25.777Z,11.02
2016-03-31T09:06:25.764Z,11
2016-03-31T09:07:25.766Z,11.06
2016-03-31T09:08:25.769Z,11.06
2016-03-31T09:09:25.787Z,11.02
2016-03-31T09:10:25.806Z,11.03
2016-03-31T09:11:27.589Z,11.03
2016-03-31T09:12:25.983Z,11.02
2016-03-31T09:13:25.830Z,10.92
2016-03-31T09:14:25.800Z,10.97
2016-03-31T09:15:25.835Z,10.96
2016-03-31T09:16:25.822Z,10.88
2016-03-31T09:17:25.825Z,10.97
2016-03-31T09:18:25.828Z,10.99
2016-03-31T09:19:25.830Z,10.89
2016-03-31T09:20:25.849Z,10.78
2016-03-31T09:21:26.055Z,10.89
2016-03-31T09:22:25.854Z,10.99
2016-03-31T09:23:25.341Z,10.89
2016-03-31T09:24:25.874Z,10.91
2016-03-31T09:25:25.878Z,10.91
2016-03-31T09:26:26.083Z,10.97
2016-03-31T09:27:26.055Z,11
2016-03-31T09:28:25.777Z,11
2016-03-31T09:29:26.091Z,11
2016-03-31T09:30:27.813Z,10.96
2016-03-31T09:31:25.909Z,11
2016-03-31T09:32:25.928Z,11.03
2016-03-31T09:33:26.165Z,11.03
2016-03-31T09:34:25.918Z,11.04
2016-03-31T09:35:26.186Z,11.09
2016-03-31T09:36:26.142Z,10.99
2016-03-31T09:37:25.942Z,11.03
2016-03-31T09:38:26.584Z,11.04
2016-03-31T09:39:25.931Z,11.03
2016-03-31T09:40:25.950Z,11.03
2016-03-31T09:41:26.171Z,11.09
2016-03-31T09:42:25.955Z,11.04
2016-03-31T09:43:26.395Z,11.02
2016-03-31T09:44:26.007Z,11.07
2016-03-31T09:45:26.010Z,11.11
2016-03-31T09:46:25.997Z,11.07
2016-03-31T09:47:40.077Z,11.02
2016-03-31T09:48:40.080Z,11.02
2016-03-31T09:49:26.035Z,11.06
2016-03-31T09:50:25.991Z,11.04
2016-03-31T09:51:25.994Z,11.02
2016-03-31T09:52:26.107Z,11
2016-03-31T09:53:26.219Z,11.02
2016-03-31T09:54:26.019Z,11
2016-03-31T09:55:26.490Z,10.97
2016-03-31T09:56:26.055Z,10.99
2016-03-31T09:57:26.058Z,11.02
2016-03-31T09:58:26.279Z,11.04
2016-03-31T09:59:26.094Z,10.99
2016-03-31T10:00:26.049Z,11.03
2016-03-31T10:01:26.287Z,11
2016-03-31T10:02:26.087Z,11.04
2016-03-31T10:03:40.183Z,11.06
2016-03-31T10:04:26.077Z,11.11
2016-03-31T10:05:26.329Z,11.07
2016-03-31T10:06:26.081Z,11.06
2016-03-31T10:07:26.100Z,11.1
2016-03-31T10:08:26.087Z,11.19
2016-03-31T10:09:26.168Z,11.1
2016-03-31T10:10:26.124Z,11.19
2016-03-31T10:11:26.173Z,11.24
2016-03-31T10:12:26.160Z,11.29
2016-03-31T10:13:26.491Z,11.19
2016-03-31T10:14:26.134Z,11.17
2016-03-31T10:15:26.809Z,11.27
2016-03-31T10:16:26.140Z,11.22
2016-03-31T10:17:26.142Z,11.22
2016-03-31T10:18:26.145Z,11.24
2016-03-31T10:19:26.164Z,11.22
2016-03-31T10:20:26.166Z,11.09
2016-03-31T10:21:26.170Z,11.15
2016-03-31T10:22:26.172Z,11.22
2016-03-31T10:23:26.409Z,11.27
2016-03-31T10:24:26.177Z,11.19
2016-03-31T10:25:26.196Z,11.21
2016-03-31T10:26:26.199Z,11.19
2016-03-31T10:27:26.216Z,11.17
2016-03-31T10:28:26.407Z,11.17
2016-03-31T10:29:26.221Z,11.17
2016-03-31T10:30:26.209Z,11.18
2016-03-31T10:31:26.243Z,11.17
2016-03-31T10:33:26.248Z,11.15
2016-03-31T10:34:26.251Z,11.19
2016-03-31T10:35:26.268Z,11.15
2016-03-31T10:36:26.271Z,11.18
2016-03-31T10:37:26.274Z,11.19
2016-03-31T10:38:26.262Z,11.24
2016-03-31T10:39:26.499Z,11.32
2016-03-31T10:40:26.486Z,11.02
2016-03-31T10:41:26.426Z,11.21
2016-03-31T10:42:26.647Z,11.18
2016-03-31T10:43:26.588Z,11.24
2016-03-31T10:44:26.887Z,11.27
2016-03-31T10:45:26.296Z,11.24
2016-03-31T10:46:26.298Z,11.28
2016-03-31T10:47:26.333Z,11.29
2016-03-31T10:48:26.539Z,11.27
2016-03-31T10:49:26.572Z,11.36
2016-03-31T10:50:26.341Z,11.33
2016-03-31T10:51:26.344Z,11.28
2016-03-31T10:52:26.347Z,11.27
2016-03-31T10:53:26.380Z,11.24
2016-03-31T10:54:26.774Z,11.32
2016-03-31T10:55:26.354Z,11.32
2016-03-31T10:56:26.372Z,11.29
2016-03-31T10:57:26.375Z,11.37
2016-03-31T10:58:26.378Z,11.39
2016-03-31T10:59:40.475Z,11.35
2016-03-31T11:00:26.586Z,11.43
2016-03-31T11:01:40.699Z,11.39
2016-03-31T11:02:26.421Z,11.52
2016-03-31T11:03:26.485Z,11.58
2016-03-31T11:04:26.410Z,11.58
2016-03-31T11:05:26.475Z,11.36
2016-03-31T11:06:40.540Z,11.46
2016-03-31T11:07:26.496Z,11.54
2016-03-31T11:08:40.545Z,11.51
2016-03-31T11:09:26.470Z,11.47
2016-03-31T11:10:40.551Z,11.57
2016-03-31T11:11:26.648Z,11.52
2016-03-31T11:12:26.650Z,11.57
2016-03-31T11:13:26.481Z,11.58
2016-03-31T11:14:26.656Z,11.58
2016-03-31T11:15:26.502Z,11.6
2016-03-31T11:16:26.473Z,11.65
2016-03-31T11:17:26.476Z,11.67
2016-03-31T11:18:26.495Z,11.62
2016-03-31T11:19:26.497Z,11.52
2016-03-31T11:20:26.484Z,11.64
2016-03-31T11:21:26.503Z,11.62
2016-03-31T11:22:26.505Z,11.7
2016-03-31T11:23:26.508Z,11.72
2016-03-31T11:24:26.526Z,11.7
2016-03-31T11:25:26.529Z,11.67
2016-03-31T11:26:26.750Z,11.7
2016-03-31T11:27:26.534Z,11.82
2016-03-31T11:28:26.536Z,11.76
2016-03-31T11:29:26.555Z,11.75
2016-03-31T11:30:26.557Z,11.8
2016-03-31T11:31:26.576Z,11.78
2016-03-31T11:32:26.579Z,11.85
2016-03-31T11:33:26.581Z,11.88
2016-03-31T11:34:26.788Z,11.91
2016-03-31T11:35:27.009Z,11.95
2016-03-31T11:36:26.823Z,11.91
2016-03-31T11:37:26.435Z,12.01
2016-03-31T11:38:26.610Z,11.95
2016-03-31T11:39:26.613Z,12.07
2016-03-31T11:40:26.616Z,12.02
2016-03-31T11:41:26.618Z,11.91
2016-03-31T11:42:26.621Z,11.9
2016-03-31T11:43:26.639Z,11.96
2016-03-31T11:44:26.642Z,11.96
2016-03-31T11:45:26.645Z,11.96
2016-03-31T11:46:26.914Z,11.98
2016-03-31T11:47:26.869Z,12.04
2016-03-31T11:48:26.887Z,12.05
2016-03-31T11:49:26.686Z,12.05
2016-03-31T11:50:26.877Z,12.12
2016-03-31T11:51:26.895Z,12.12
2016-03-31T11:52:26.695Z,12.09
2016-03-31T11:53:26.698Z,12.12
2016-03-31T11:54:26.716Z,12.1
2016-03-31T11:55:26.734Z,12.1
2016-03-31T11:56:26.705Z,12.12
2016-03-31T11:57:26.724Z,11.96
2016-03-31T11:58:26.946Z,12.13
2016-03-31T11:59:26.291Z,11.98
2016-03-31T12:00:26.748Z,11.98
2016-03-31T12:01:26.750Z,11.96
2016-03-31T12:02:26.738Z,11.96
2016-03-31T12:03:26.772Z,12.02
2016-03-31T12:04:29.791Z,11.96
2016-03-31T12:05:26.761Z,11.95
2016-03-31T12:06:26.608Z,11.96
2016-03-31T12:07:26.985Z,12.01
2016-03-31T12:08:26.785Z,12.09
2016-03-31T12:09:26.818Z,12.13
2016-03-31T12:10:27.009Z,12.14
2016-03-31T12:11:26.793Z,12.09
2016-03-31T12:12:26.843Z,11.99
2016-03-31T12:13:26.830Z,12.13
2016-03-31T12:14:27.270Z,12.17
2016-03-31T12:15:26.867Z,12.23
2016-03-31T12:16:26.853Z,12.17
2016-03-31T12:17:26.856Z,12.23
2016-03-31T12:18:26.874Z,12.2
2016-03-31T12:19:26.893Z,12.24
2016-03-31T12:20:26.895Z,12.24
2016-03-31T12:21:26.164Z,12.32
2016-03-31T12:22:26.886Z,12.34
2016-03-31T12:23:26.889Z,12.24
2016-03-31T12:24:26.891Z,12.31
2016-03-31T12:25:26.894Z,12.39
2016-03-31T12:26:26.911Z,12.41
2016-03-31T12:27:26.930Z,12.45
2016-03-31T12:28:26.932Z,12.53
2016-03-31T12:29:26.950Z,12.59
2016-03-31T12:30:26.969Z,12.54
2016-03-31T12:31:26.972Z,12.53
2016-03-31T12:32:27.208Z,12.5
2016-03-31T12:33:26.993Z,12.59
2016-03-31T12:34:27.198Z,12.59
2016-03-31T12:35:26.998Z,12.56
2016-03-31T12:36:26.985Z,12.7
2016-03-31T12:37:27.004Z,12.71
2016-03-31T12:38:26.991Z,12.74
2016-03-31T12:39:26.993Z,12.75
2016-03-31T12:40:27.402Z,12.56
2016-03-31T12:41:26.998Z,12.54
2016-03-31T12:42:27.032Z,12.56
2016-03-31T12:43:27.020Z,12.71
2016-03-31T12:44:27.038Z,12.54
2016-03-31T12:45:27.087Z,12.53
2016-03-31T12:46:27.043Z,12.59
2016-03-31T12:47:27.311Z,12.62
2016-03-31T12:48:27.080Z,12.6
2016-03-31T12:49:27.098Z,12.57
2016-03-31T12:50:27.304Z,12.59
2016-03-31T12:51:27.104Z,12.59
2016-03-31T12:52:27.122Z,12.7
2016-03-31T12:53:27.094Z,12.77
2016-03-31T12:54:27.096Z,12.85
2016-03-31T12:55:27.130Z,12.83
2016-03-31T12:56:27.133Z,12.79
2016-03-31T12:57:27.120Z,12.87
2016-03-31T12:58:27.169Z,12.79
2016-03-31T12:59:27.141Z,12.82
2016-03-31T13:00:26.612Z,12.71
2016-03-31T13:01:27.178Z,12.79
2016-03-31T13:02:27.149Z,12.82
2016-03-31T13:03:27.198Z,12.83
2016-03-31T13:04:27.169Z,12.87
2016-03-31T13:05:27.173Z,12.92
2016-03-31T13:06:27.207Z,12.95
2016-03-31T13:07:27.210Z,13
2016-03-31T13:09:27.230Z,13.03
2016-03-31T13:10:27.217Z,13.04
2016-03-31T13:11:27.235Z,13.08
2016-03-31T13:12:27.254Z,13.08
2016-03-31T13:13:27.225Z,12.96
2016-03-31T13:14:27.243Z,12.97
2016-03-31T13:15:27.246Z,12.97
2016-03-31T13:16:27.281Z,12.92
2016-03-31T13:17:27.502Z,12.89
2016-03-31T13:19:26.992Z,12.79
2016-03-31T13:20:27.306Z,12.85
2016-03-31T13:21:27.309Z,12.71
2016-03-31T13:22:27.328Z,12.72
2016-03-31T13:23:27.534Z,12.64
2016-03-31T13:24:27.537Z,12.59
2016-03-31T13:25:27.523Z,12.59
2016-03-31T13:26:27.339Z,12.62
2016-03-31T13:27:28.153Z,12.62
2016-03-31T13:28:27.203Z,12.59
2016-03-31T13:29:27.362Z,12.53
2016-03-31T13:30:26.864Z,12.54
2016-03-31T13:31:27.371Z,12.52